• Join FlightAware (Why Join?)
  • Login
  • US Flag 
03:48AM EDT


 

Airport Tracker/Info


-or-


 

Live Flight TrackerFlight Track Log ✈ EJA292 ✈ 17-Jun-2013 ✈ KROC - KILG

Flight Track Log - Related Links

Times and Time Zones

All times are in EDT time to prevent confusion due to time zone crossing. See the EJA292 flight status page for this flight to view local times or setup timezone preferences in your user account.

Time Position Orientation Groundspeed Altitude Reporting Facility
EDT Latitude Longitude Course Direction KTS MPH feet Rate Location/Type
10:57AM 43.1203 -77.6992 266° West 136 157 1,800  Level Cleveland Center
10:57AM 43.1189 -77.7275 266° West 181 208 3,200 3,900 Climbing Cleveland Center
10:58AM 43.0550 -77.7561 198° South 244 281 7,800 3,120 Climbing Cleveland Center
10:59AM 42.9861 -77.7536 178° South 290 334 9,800 2,520 Climbing Cleveland Center
11:00AM 42.8983 -77.7433 175° South 306 352 13,100 2,940 Climbing Cleveland Center
11:01AM 42.8108 -77.7417 179° South 319 367 15,700 1,440 Climbing Cleveland Center
11:02AM 42.7114 -77.7658 190° South 338 389 16,000 60 Climbing Cleveland Center
11:03AM 42.5892 -77.7994 191° South 373 429 15,900  Descending Cleveland Center
11:04AM 42.4711 -77.8272 190° South 415 478 16,100 60 Climbing Cleveland Center
11:05AM 42.3531 -77.8578 191° South 429 494 16,100  Level Cleveland Center
11:06AM 42.2350 -77.8908 192° South 434 499 16,100  Level Cleveland Center
11:07AM 42.1136 -77.8681 172° South 426 490 16,100 -60 Level Cleveland Center
11:08AM 41.9914 -77.8172 163° South 438 504 16,000  Descending Cleveland Center
11:09AM 41.8711 -77.7611 161° South 454 522 16,100  Climbing Cleveland Center
11:09AM 41.8411 -77.7508 166° South 454 522 16,000 -120 Descending New York Center
11:10AM 41.7214 -77.6967 161° South 469 540 16,000  Level New York Center
11:11AM 41.6039 -77.6428 161° South 469 540 16,000  Level New York Center
11:12AM 41.4819 -77.5889 162° South 464 534 16,000  Level New York Center
11:13AM 41.3619 -77.5353 161° South 464 534 16,100  Climbing New York Center
11:14AM 41.2422 -77.4817 161° South 464 534 16,000 -60 Descending New York Center
11:15AM 41.1242 -77.4289 161° South 459 528 16,000  Level New York Center
11:16AM 41.0022 -77.3756 162° South 459 528 16,000  Level New York Center
11:17AM 40.8819 -77.3256 163° South 459 528 16,000  Level New York Center
11:18AM 40.7619 -77.2728 162° South 454 522 16,000  Level New York Center
11:19AM 40.6419 -77.2206 162° South 454 522 16,100  Climbing New York Center
11:20AM 40.5339 -77.1719 161° South 454 522 16,000 -60 Descending New York Center
11:21AM 40.4061 -77.1083 159° South 447 514 16,000  Level New York Center
11:22AM 40.3444 -76.9747 121° Southeast 437 503 16,100  Climbing New York Center
11:23AM 40.2869 -76.7981 113° Southeast 460 529 16,000 -60 Descending New York Center
11:24AM 40.2397 -76.6581 114° Southeast 477 549 16,000  Level New York Center
11:25AM 40.1797 -76.4789 114° Southeast 477 549 16,000 -840 Level New York Center
11:26AM 40.1267 -76.3225 114° Southeast 477 549 14,400 -1,800 Descending New York Center
11:27AM 40.1111 -76.1611 97° East 464 534 12,500 -1,800 Descending New York Center
11:28AM 40.1019 -76.0411 96° East 401 461 10,900 -1,500 Descending New York Center
11:29AM 40.0928 -75.9208 96° East 346 398 9,500 -1,680 Descending New York Center
11:30AM 40.0831 -75.8064 96° East 302 348 7,600 -1,740 Descending New York Center
11:31AM 40.0642 -75.7128 105° East 268 308 6,000 -840 Descending New York Center
11:32AM 40.0178 -75.6767 149° Southeast 215 247 6,000 -660 Level New York Center
11:33AM 39.9583 -75.6483 160° South 210 242 4,800 -1,380 Descending New York Center
11:34AM 39.9089 -75.6367 170° South 204 235 3,300 -1,200 Descending New York Center
11:35AM 39.8667 -75.6167 160° South 204 235 2,700 -720 Descending Philadelphia TRACON
11:36AM 39.8000 -75.6000 169° South 215 247 2,000 -420 Descending Philadelphia TRACON
11:37AM 39.7500 -75.5667 153° Southeast 177 204 1,900 -600 Descending Philadelphia TRACON
11:38AM 39.7167 -75.6000 218° Southwest 139 160 800 -1,020 Descending Philadelphia TRACON
11:44AM 39.6787 -75.6066 198° South  Level Estimated
11:51AM 39.6787 -75.6066 30° Northeast  Level Estimated
11:52AM 39.6787 -75.6066 30° Northeast  Level Estimated
11:53AM 39.6787 -75.6066 30° Northeast  Level Estimated
11:54AM 39.6787 -75.6066 30° Northeast  Level Estimated
11:55AM 39.6787 -75.6066 30° Northeast  Level Estimated